Time;durP1;ratioP1;P1;durP2;ratioP2;P2;SDS_P1;SDS_P2;PMS_P1;PMS_P2;Temp;Humidity;BMP_temperature;BMP_pressure;BME280_temperature;BME280_humidity;BME280_pressure;Samples;Min_cycle;Max_cycle;Signal;HPM_P1;HPM_P2
2022/06/16 00:00:36;;;;;;;5.82;2.88;;;19.70;97.30;;;;;;5088956;28;20574;-50
2022/06/16 00:03:05;;;;;;;5.57;3.10;;;19.60;97.20;;;;;;5088363;28;20669;-50
2022/06/16 00:05:35;;;;;;;4.03;3.10;;;19.70;97.40;;;;;;5087321;28;20324;-50
2022/06/16 00:08:05;;;;;;;4.07;3.33;;;19.70;97.30;;;;;;5088599;28;20228;-50
2022/06/16 00:10:33;;;;;;;6.13;3.35;;;19.80;97.20;;;;;;5089112;28;20204;-50
2022/06/16 00:13:02;;;;;;;4.38;2.85;;;19.70;97.50;;;;;;5087856;28;20258;-51
2022/06/16 00:15:30;;;;;;;7.00;3.30;;;19.70;97.30;;;;;;5088767;28;20193;-50
2022/06/16 00:18:00;;;;;;;5.75;3.17;;;19.70;97.20;;;;;;5087679;28;20263;-50
2022/06/16 00:20:28;;;;;;;5.95;3.10;;;19.70;97.40;;;;;;5085926;28;20200;-51
2022/06/16 00:22:56;;;;;;;4.10;3.03;;;19.70;97.40;;;;;;5082659;28;20204;-50
2022/06/16 00:25:24;;;;;;;6.18;3.40;;;19.70;97.30;;;;;;5078889;28;20221;-50
2022/06/16 00:27:53;;;;;;;4.07;3.35;;;19.60;97.40;;;;;;5094565;28;20569;-50
2022/06/16 00:30:21;;;;;;;4.43;3.00;;;19.60;97.50;;;;;;5094096;28;20603;-50
2022/06/16 00:32:49;;;;;;;6.65;3.38;;;19.60;97.70;;;;;;5064759;28;20216;-51
2022/06/16 00:35:18;;;;;;;3.55;3.08;;;19.50;97.70;;;;;;5092662;28;20254;-51
2022/06/16 00:37:46;;;;;;;7.30;3.58;;;19.50;97.80;;;;;;5092084;28;20301;-51
2022/06/16 00:40:14;;;;;;;9.02;3.58;;;19.40;97.70;;;;;;5092337;28;20679;-51
2022/06/16 00:42:44;;;;;;;4.22;3.10;;;19.40;97.90;;;;;;5091618;28;20196;-51
2022/06/16 00:45:45;;;;;;;6.40;3.38;;;19.30;97.90;;;;;;5092021;28;20228;-51
2022/06/16 00:48:17;;;;;;;8.15;3.60;;;19.30;98.00;;;;;;5070412;28;20228;-51
2022/06/16 00:50:48;;;;;;;3.88;2.97;;;19.20;98.10;;;;;;5092109;28;20212;-51
2022/06/16 00:53:16;;;;;;;5.55;2.85;;;19.20;98.00;;;;;;5091198;28;20243;-51
2022/06/16 00:55:45;;;;;;;4.60;3.20;;;19.20;98.10;;;;;;5079188;28;20205;-51
2022/06/16 00:58:13;;;;;;;3.75;2.97;;;19.10;98.20;;;;;;5077455;28;20279;-51
2022/06/16 01:00:46;;;;;;;5.72;2.95;;;19.10;98.20;;;;;;5091655;28;20227;-50
2022/06/16 01:04:51;;;;;;;4.32;3.05;;;19.10;98.20;;;;;;5091345;28;20200;-51
2022/06/16 01:06:18;;;;;;;5.60;3.20;;;19.00;98.10;;;;;;5091402;28;20278;-51
2022/06/16 01:08:47;;;;;;;5.10;3.35;;;19.00;98.10;;;;;;5091831;28;20215;-50
2022/06/16 01:14:17;;;;;;;5.50;2.90;;;19.00;98.30;;;;;;5091076;28;20746;-51
2022/06/16 01:16:48;;;;;;;4.75;3.05;;;18.90;98.60;;;;;;5090897;28;20259;-51
2022/06/16 01:19:35;;;;;;;3.75;3.13;;;18.90;98.40;;;;;;5087604;28;20203;-51
2022/06/16 01:22:10;;;;;;;3.92;3.20;;;18.80;98.50;;;;;;5090135;28;20620;-51
2022/06/16 01:25:00;;;;;;;5.68;3.40;;;18.80;98.80;;;;;;5084529;28;21117;-50
2022/06/16 01:27:49;;;;;;;4.25;3.25;;;18.80;99.00;;;;;;5091295;28;20733;-50
2022/06/16 01:30:25;;;;;;;6.10;3.97;;;18.70;99.10;;;;;;5091061;28;20245;-51
2022/06/16 01:33:02;;;;;;;6.25;3.40;;;18.60;99.10;;;;;;5090854;28;20230;-51
2022/06/16 01:35:37;;;;;;;6.03;3.65;;;18.60;99.30;;;;;;5063184;28;20268;-51
2022/06/16 01:38:14;;;;;;;6.30;3.58;;;18.50;99.40;;;;;;5091216;28;20332;-50
2022/06/16 01:40:47;;;;;;;4.95;3.45;;;18.50;99.90;;;;;;5090989;28;20232;-50
2022/06/16 01:43:22;;;;;;;6.47;3.60;;;18.50;99.60;;;;;;5091002;28;20208;-51
2022/06/16 01:45:57;;;;;;;5.30;3.30;;;18.40;99.90;;;;;;5091418;28;20255;-51
2022/06/16 01:48:28;;;;;;;6.45;3.47;;;18.30;99.90;;;;;;5077512;28;20254;-51
2022/06/16 01:50:59;;;;;;;5.60;3.20;;;18.30;99.90;;;;;;5091481;28;20550;-50
2022/06/16 01:53:33;;;;;;;6.60;3.28;;;18.30;99.90;;;;;;5090082;28;20201;-50
2022/06/16 01:56:06;;;;;;;5.78;3.25;;;18.20;99.90;;;;;;5091516;28;20613;-51
2022/06/16 01:58:38;;;;;;;5.75;3.40;;;18.10;99.90;;;;;;5090705;28;20250;-50
2022/06/16 02:01:11;;;;;;;6.75;3.60;;;18.10;99.90;;;;;;5089212;28;20240;-51
2022/06/16 02:03:44;;;;;;;7.55;3.80;;;18.10;99.90;;;;;;5070745;28;20204;-50
2022/06/16 02:06:17;;;;;;;5.43;3.55;;;18.10;99.90;;;;;;5077658;28;20212;-50
2022/06/16 02:08:48;;;;;;;4.28;3.55;;;18.00;99.90;;;;;;5081420;28;20239;-50
2022/06/16 02:11:21;;;;;;;7.97;3.65;;;18.00;99.90;;;;;;5090260;28;20205;-51
2022/06/16 02:13:53;;;;;;;6.78;3.50;;;17.90;99.90;;;;;;5090204;28;20631;-51
2022/06/16 02:16:25;;;;;;;6.30;3.67;;;17.90;99.90;;;;;;5090155;28;20716;-51
2022/06/16 02:18:54;;;;;;;5.97;3.40;;;17.90;99.90;;;;;;5090756;28;20220;-50
2022/06/16 02:21:27;;;;;;;5.28;3.22;;;17.90;99.90;;;;;;5089516;28;20596;-51
2022/06/16 02:23:57;;;;;;;4.00;3.25;;;17.90;99.90;;;;;;5089982;28;20266;-50
2022/06/16 02:26:25;;;;;;;5.53;3.60;;;17.90;99.90;;;;;;5090450;28;20232;-50
2022/06/16 02:28:55;;;;;;;4.93;3.50;;;17.80;99.90;;;;;;5090095;28;20204;-50
2022/06/16 02:31:39;;;;;;;5.97;3.95;;;17.80;99.90;;;;;;5090559;28;20267;-50
2022/06/16 02:34:17;;;;;;;5.03;4.03;;;17.70;99.90;;;;;;5089748;28;20212;-50
2022/06/16 02:37:01;;;;;;;7.85;4.22;;;17.60;99.90;;;;;;5090228;28;20717;-50
2022/06/16 02:39:43;;;;;;;5.15;4.05;;;17.50;99.90;;;;;;5089591;28;20677;-50
2022/06/16 02:42:20;;;;;;;6.13;3.60;;;17.50;99.90;;;;;;5089787;28;20204;-50
2022/06/16 02:45:01;;;;;;;7.68;3.90;;;17.50;99.90;;;;;;5090150;28;20227;-51
2022/06/16 02:47:47;;;;;;;6.95;3.97;;;17.50;99.90;;;;;;5087932;28;20286;-50
2022/06/16 02:50:26;;;;;;;6.60;4.80;;;17.50;99.90;;;;;;5090038;28;20540;-51
2022/06/16 02:53:03;;;;;;;8.15;4.10;;;17.50;99.90;;;;;;5064401;28;20212;-50
2022/06/16 02:55:38;;;;;;;5.32;4.38;;;17.40;99.90;;;;;;5090077;28;20204;-50
2022/06/16 02:58:08;;;;;;;4.53;3.88;;;17.40;99.90;;;;;;5089422;28;20255;-50
2022/06/16 03:00:41;;;;;;;11.45;5.40;;;17.30;99.90;;;;;;5089552;28;21011;-51
2022/06/16 03:03:19;;;;;;;6.43;4.32;;;17.30;99.90;;;;;;5078164;28;20204;-51
2022/06/16 03:05:50;;;;;;;7.85;4.25;;;17.30;99.90;;;;;;5088507;28;20342;-49
2022/06/16 03:08:19;;;;;;;5.68;4.10;;;17.20;99.90;;;;;;5089124;28;20263;-50
2022/06/16 03:10:53;;;;;;;7.35;4.40;;;17.20;99.90;;;;;;5088845;28;20222;-50
2022/06/16 03:13:22;;;;;;;6.20;4.47;;;17.20;99.90;;;;;;5089938;28;20204;-50
2022/06/16 03:15:53;;;;;;;7.28;4.47;;;17.10;99.90;;;;;;5088755;28;20257;-51
2022/06/16 03:18:23;;;;;;;6.28;4.10;;;17.10;99.90;;;;;;5089622;28;20204;-50
2022/06/16 03:20:51;;;;;;;6.50;4.10;;;17.10;99.90;;;;;;5089635;28;20673;-50
2022/06/16 03:23:20;;;;;;;6.57;3.92;;;17.10;99.90;;;;;;5070562;28;20249;-50
2022/06/16 03:25:48;;;;;;;5.38;4.30;;;17.10;99.90;;;;;;5081335;28;20259;-51
2022/06/16 03:28:16;;;;;;;5.63;4.50;;;17.10;99.90;;;;;;5089257;28;20224;-50
2022/06/16 03:30:45;;;;;;;6.30;4.05;;;17.10;99.90;;;;;;5089727;28;20246;-50
2022/06/16 03:33:15;;;;;;;6.00;4.63;;;17.10;99.90;;;;;;5089356;28;20208;-50
2022/06/16 03:35:44;;;;;;;6.22;4.43;;;17.10;99.90;;;;;;5089387;28;20200;-50
2022/06/16 03:38:16;;;;;;;6.28;4.60;;;17.20;99.90;;;;;;5089317;28;20263;-53
2022/06/16 03:40:44;;;;;;;6.57;4.68;;;17.10;99.90;;;;;;5087014;28;20243;-52
2022/06/16 03:43:12;;;;;;;6.25;4.22;;;17.10;99.90;;;;;;5092205;28;20208;-52
2022/06/16 03:45:40;;;;;;;10.00;5.20;;;17.10;99.90;;;;;;5091212;28;20508;-52
2022/06/16 03:48:09;;;;;;;6.30;4.72;;;17.20;99.90;;;;;;5078836;28;20264;-53
2022/06/16 03:50:37;;;;;;;7.13;4.85;;;17.10;99.90;;;;;;5066586;28;20254;-53
2022/06/16 03:53:06;;;;;;;6.72;5.13;;;17.10;99.90;;;;;;5065799;28;20263;-53
2022/06/16 03:55:35;;;;;;;6.28;4.85;;;17.10;99.90;;;;;;5073765;28;20250;-53
2022/06/16 03:58:03;;;;;;;6.57;4.70;;;17.10;99.90;;;;;;5068619;28;20248;-53
2022/06/16 04:00:31;;;;;;;5.90;4.20;;;17.10;99.90;;;;;;5070693;28;20201;-53
2022/06/16 04:05:45;;;;;;;5.55;3.95;;;17.20;99.90;;;;;;5072795;28;20225;-53
2022/06/16 04:08:16;;;;;;;8.05;4.13;;;17.20;99.90;;;;;;5072079;28;20256;-53
2022/06/16 04:10:44;;;;;;;5.35;4.10;;;17.20;99.90;;;;;;5072078;28;20197;-53
2022/06/16 04:13:13;;;;;;;9.05;4.60;;;17.20;99.90;;;;;;5071674;28;20243;-53
2022/06/16 04:15:41;;;;;;;6.20;4.30;;;17.20;99.90;;;;;;5072156;28;20209;-53
2022/06/16 04:18:09;;;;;;;6.97;4.30;;;17.30;99.90;;;;;;5090656;28;20228;-53
2022/06/16 04:20:37;;;;;;;7.20;4.47;;;17.30;99.90;;;;;;5092221;28;20208;-53
2022/06/16 04:23:10;;;;;;;6.18;4.80;;;17.30;99.90;;;;;;5078391;28;20212;-53
2022/06/16 04:25:39;;;;;;;6.93;4.65;;;17.20;99.90;;;;;;5092480;28;20215;-53
2022/06/16 04:28:08;;;;;;;6.05;4.40;;;17.20;99.90;;;;;;5091861;28;20744;-53
2022/06/16 04:30:36;;;;;;;5.97;4.65;;;17.20;99.90;;;;;;5092769;28;20232;-53
2022/06/16 04:33:04;;;;;;;8.18;4.50;;;17.30;99.90;;;;;;5091676;28;20239;-53
2022/06/16 04:35:32;;;;;;;6.40;4.47;;;17.30;99.90;;;;;;5092743;28;20235;-53
2022/06/16 04:38:00;;;;;;;6.40;4.75;;;17.40;99.90;;;;;;5092158;28;20301;-53
2022/06/16 04:40:28;;;;;;;7.25;4.43;;;17.40;99.90;;;;;;5088052;28;20236;-53
2022/06/16 04:42:58;;;;;;;7.15;4.72;;;17.50;99.90;;;;;;5092313;28;20200;-50
2022/06/16 04:45:26;;;;;;;6.13;4.50;;;17.50;99.90;;;;;;5091952;28;20238;-51
2022/06/16 04:47:54;;;;;;;5.55;4.78;;;17.50;99.90;;;;;;5082366;28;20261;-51
2022/06/16 04:50:22;;;;;;;6.43;4.95;;;17.50;99.90;;;;;;5089821;28;20204;-51
2022/06/16 04:52:50;;;;;;;7.05;5.00;;;17.60;99.90;;;;;;5082558;28;20269;-51
2022/06/16 04:55:19;;;;;;;5.93;4.90;;;17.70;99.90;;;;;;5069511;28;20728;-50
2022/06/16 04:57:47;;;;;;;7.70;4.80;;;17.70;99.90;;;;;;5081195;28;20590;-50
2022/06/16 05:00:17;;;;;;;7.60;4.32;;;17.80;99.90;;;;;;5078802;28;20233;-52
2022/06/16 05:02:53;;;;;;;5.40;4.47;;;17.90;99.90;;;;;;5070559;28;20212;-52
2022/06/16 05:05:21;;;;;;;5.38;4.30;;;17.90;99.90;;;;;;5086615;28;20231;-53
2022/06/16 05:07:49;;;;;;;6.22;4.32;;;17.90;99.90;;;;;;5090866;28;20259;-53
2022/06/16 05:10:17;;;;;;;5.60;4.53;;;18.00;99.90;;;;;;5091067;28;20247;-53
2022/06/16 05:12:46;;;;;;;5.22;4.22;;;18.00;99.90;;;;;;5063087;28;20858;-52
2022/06/16 05:15:14;;;;;;;5.07;4.18;;;18.00;99.90;;;;;;5091329;28;20722;-53
2022/06/16 05:17:43;;;;;;;7.05;4.18;;;18.10;99.90;;;;;;5090749;28;20232;-52
2022/06/16 05:20:12;;;;;;;6.97;4.35;;;18.10;99.90;;;;;;5091539;28;20258;-53
2022/06/16 05:22:40;;;;;;;5.20;4.15;;;18.20;99.90;;;;;;5077826;28;20217;-54
2022/06/16 05:25:09;;;;;;;5.63;4.38;;;18.30;99.90;;;;;;5063007;28;20235;-53
2022/06/16 05:27:37;;;;;;;7.22;4.50;;;18.30;99.90;;;;;;5091003;28;20264;-52
2022/06/16 05:30:07;;;;;;;8.13;4.30;;;18.40;99.90;;;;;;5090793;28;20384;-52
2022/06/16 05:32:35;;;;;;;6.45;4.18;;;18.30;99.90;;;;;;5077843;28;20298;-53
2022/06/16 05:35:05;;;;;;;6.32;4.57;;;18.30;99.90;;;;;;5070053;28;20232;-53
2022/06/16 05:37:34;;;;;;;7.60;4.38;;;18.50;99.90;;;;;;5091065;28;20267;-53
2022/06/16 05:40:02;;;;;;;10.88;4.38;;;18.70;99.90;;;;;;5083796;28;20624;-53
2022/06/16 05:42:31;;;;;;;5.32;3.90;;;19.60;99.90;;;;;;5091055;28;20257;-53
2022/06/16 05:44:59;;;;;;;7.07;4.03;;;20.20;99.90;;;;;;5090437;28;20232;-53
2022/06/16 05:47:27;;;;;;;6.47;3.83;;;20.30;99.90;;;;;;5084337;28;20278;-52
2022/06/16 05:49:55;;;;;;;6.05;3.97;;;20.20;99.90;;;;;;5084666;28;20819;-53
2022/06/16 05:52:25;;;;;;;5.20;3.70;;;20.20;99.90;;;;;;5090350;28;20672;-53
2022/06/16 05:54:55;;;;;;;4.63;3.30;;;20.30;99.90;;;;;;5084619;28;20321;-52
2022/06/16 05:57:23;;;;;;;4.90;3.67;;;20.60;99.90;;;;;;5088463;28;20216;-53
2022/06/16 05:59:51;;;;;;;6.60;3.83;;;20.70;99.90;;;;;;5088597;28;20208;-53
2022/06/16 06:02:20;;;;;;;6.53;3.90;;;21.30;99.90;;;;;;5086514;28;20201;-53
2022/06/16 06:04:49;;;;;;;5.80;3.80;;;21.90;99.90;;;;;;5068573;28;20205;-53
2022/06/16 06:07:17;;;;;;;6.63;3.63;;;22.30;99.90;;;;;;5053413;28;20709;-53
2022/06/16 06:18:34;;;;;;;6.15;3.78;;;23.90;96.10;;;;;;5066583;28;20218;-51
2022/06/16 06:21:02;;;;;;;5.13;3.58;;;23.70;96.90;;;;;;5090262;28;20231;-52
2022/06/16 06:23:30;;;;;;;5.13;3.50;;;23.80;96.20;;;;;;5075247;28;20795;-52
2022/06/16 06:25:59;;;;;;;5.88;3.42;;;24.20;96.20;;;;;;5089588;28;20212;-51
2022/06/16 06:28:27;;;;;;;5.47;3.13;;;24.50;95.60;;;;;;5089735;28;20281;-52
2022/06/16 06:30:55;;;;;;;4.40;3.28;;;24.90;96.40;;;;;;5090760;28;20236;-51
2022/06/16 06:33:24;;;;;;;4.22;3.00;;;25.50;95.10;;;;;;5082481;28;20200;-51
2022/06/16 06:35:52;;;;;;;4.95;2.92;;;25.80;94.90;;;;;;5090164;28;20200;-51
2022/06/16 06:38:20;;;;;;;7.25;3.30;;;26.00;93.90;;;;;;5089858;28;20220;-51
2022/06/16 06:40:48;;;;;;;7.63;3.35;;;26.10;93.90;;;;;;5080634;28;20245;-51
2022/06/16 06:43:17;;;;;;;6.78;2.78;;;26.40;93.10;;;;;;5090071;28;20239;-52
2022/06/16 06:45:45;;;;;;;5.53;3.05;;;26.30;92.80;;;;;;5082403;28;20205;-52
2022/06/16 06:48:13;;;;;;;5.53;3.15;;;26.10;92.10;;;;;;5071096;28;20694;-52
2022/06/16 06:50:41;;;;;;;4.75;3.10;;;26.30;92.00;;;;;;5062513;28;20204;-51
2022/06/16 06:53:09;;;;;;;6.82;3.10;;;26.00;91.60;;;;;;5088807;28;20269;-51
2022/06/16 06:55:40;;;;;;;3.83;3.10;;;26.10;91.40;;;;;;5089734;28;20265;-51
2022/06/16 06:58:08;;;;;;;5.10;3.50;;;26.30;91.40;;;;;;5061053;28;20217;-51
2022/06/16 07:00:38;;;;;;;5.75;3.10;;;26.40;91.60;;;;;;5064767;28;20234;-51
2022/06/16 07:03:09;;;;;;;3.33;2.95;;;26.80;90.80;;;;;;5065876;28;20863;-52
2022/06/16 07:05:40;;;;;;;5.85;2.90;;;26.90;90.40;;;;;;5064342;28;20204;-51
2022/06/16 07:08:08;;;;;;;6.20;3.15;;;27.00;90.70;;;;;;5069595;28;20581;-50
2022/06/16 07:10:38;;;;;;;4.18;3.38;;;27.10;90.30;;;;;;5071900;28;20200;-50
2022/06/16 07:13:14;;;;;;;6.35;3.38;;;27.10;90.00;;;;;;5070017;28;20200;-51
2022/06/16 07:15:44;;;;;;;5.80;3.20;;;27.20;90.00;;;;;;5068340;28;20201;-51
2022/06/16 07:18:12;;;;;;;5.07;3.03;;;27.50;90.00;;;;;;5072457;28;20263;-51
2022/06/16 07:20:41;;;;;;;4.22;2.80;;;27.70;90.10;;;;;;5076121;28;20648;-51
2022/06/16 07:23:10;;;;;;;5.15;2.97;;;27.90;88.30;;;;;;5068968;28;20285;-52
2022/06/16 07:25:38;;;;;;;7.20;3.35;;;27.70;87.10;;;;;;5063334;28;20237;-52
2022/06/16 07:28:06;;;;;;;7.18;3.30;;;27.70;86.70;;;;;;5066044;28;20267;-51
2022/06/16 07:30:34;;;;;;;7.25;3.15;;;27.50;85.70;;;;;;5066151;28;20278;-51
2022/06/16 07:33:04;;;;;;;4.30;3.20;;;27.30;85.80;;;;;;5066814;28;20212;-51
2022/06/16 07:35:32;;;;;;;4.93;3.40;;;27.20;86.90;;;;;;5068511;28;20262;-51
2022/06/16 07:38:00;;;;;;;5.60;3.15;;;27.30;85.60;;;;;;5067757;28;20246;-52
2022/06/16 07:40:29;;;;;;;6.03;3.17;;;27.30;86.00;;;;;;5071420;28;20205;-51
2022/06/16 07:42:57;;;;;;;6.70;3.47;;;27.40;85.40;;;;;;5062680;28;20201;-51
2022/06/16 07:45:27;;;;;;;7.55;3.28;;;27.30;85.80;;;;;;5071359;28;20205;-51
2022/06/16 07:47:57;;;;;;;5.50;3.08;;;27.40;85.90;;;;;;5066677;28;20260;-51
2022/06/16 07:50:26;;;;;;;5.80;3.30;;;27.50;87.10;;;;;;5067129;28;20236;-50
2022/06/16 07:52:54;;;;;;;5.93;3.47;;;27.70;85.80;;;;;;5066400;28;20867;-51
2022/06/16 07:55:23;;;;;;;3.80;3.08;;;27.60;85.30;;;;;;5071956;28;20205;-51
2022/06/16 07:57:52;;;;;;;4.45;3.00;;;27.60;85.40;;;;;;5065997;28;20294;-51
2022/06/16 08:00:23;;;;;;;6.22;3.20;;;27.60;86.10;;;;;;5070252;28;20237;-51
2022/06/16 08:02:51;;;;;;;5.88;3.22;;;27.60;86.20;;;;;;5071841;28;20258;-51
2022/06/16 08:05:23;;;;;;;6.95;3.38;;;27.60;85.40;;;;;;5070423;28;20288;-51
2022/06/16 08:07:52;;;;;;;4.88;3.35;;;27.40;86.20;;;;;;5071190;28;20237;-51
2022/06/16 08:10:24;;;;;;;6.00;3.42;;;26.80;86.10;;;;;;5072168;28;20662;-50
2022/06/16 08:12:52;;;;;;;8.13;3.67;;;26.10;89.10;;;;;;5071249;28;20205;-49
2022/06/16 08:15:21;;;;;;;5.03;3.78;;;25.50;88.80;;;;;;5071774;28;20670;-51
2022/06/16 08:17:51;;;;;;;4.85;3.80;;;25.30;90.00;;;;;;5075320;28;20808;-51
2022/06/16 08:20:20;;;;;;;7.22;3.75;;;25.30;90.20;;;;;;5072069;28;20221;-51
2022/06/16 08:22:48;;;;;;;5.18;3.58;;;25.00;90.60;;;;;;5072699;28;20290;-51
2022/06/16 08:25:19;;;;;;;6.65;3.38;;;25.00;91.00;;;;;;5070142;28;21515;-51
2022/06/16 08:27:52;;;;;;;5.05;4.15;;;24.90;91.10;;;;;;5072944;28;20660;-50
2022/06/16 08:30:21;;;;;;;9.35;3.92;;;24.60;90.50;;;;;;5072262;28;20212;-50
2022/06/16 08:32:51;;;;;;;5.68;3.60;;;24.50;90.50;;;;;;5074525;28;20212;-50
2022/06/16 08:35:20;;;;;;;4.35;3.72;;;24.70;90.50;;;;;;5071957;28;20205;-51
2022/06/16 08:37:48;;;;;;;7.05;3.28;;;24.60;90.20;;;;;;5074939;28;20224;-51
2022/06/16 08:40:19;;;;;;;5.93;3.30;;;24.80;90.60;;;;;;5069266;28;20236;-50
2022/06/16 08:42:51;;;;;;;8.18;3.42;;;24.70;90.90;;;;;;5074511;28;20661;-49
2022/06/16 08:45:38;;;;;;;4.38;3.22;;;24.80;91.40;;;;;;5070816;28;20205;-50
2022/06/16 08:48:21;;;;;;;5.32;3.47;;;24.70;90.90;;;;;;5074245;28;20234;-51
2022/06/16 08:50:57;;;;;;;5.85;3.25;;;24.70;90.40;;;;;;5067589;28;20262;-51
2022/06/16 08:53:45;;;;;;;4.50;3.60;;;24.70;90.50;;;;;;5068325;28;20303;-52
2022/06/16 08:56:18;;;;;;;5.50;3.60;;;24.60;90.00;;;;;;5073200;28;20236;-50
2022/06/16 08:58:55;;;;;;;4.72;3.20;;;24.60;90.50;;;;;;5071302;28;20209;-52
2022/06/16 09:01:32;;;;;;;6.18;3.17;;;24.70;90.60;;;;;;5077034;28;20655;-50
2022/06/16 09:04:04;;;;;;;6.60;3.55;;;24.60;90.00;;;;;;5070534;28;20266;-50
2022/06/16 09:06:44;;;;;;;5.43;3.38;;;24.50;90.30;;;;;;5076228;28;20305;-50
2022/06/16 09:12:20;;;;;;;6.00;3.70;;;24.30;88.40;;;;;;5067561;28;20270;-50
2022/06/16 09:15:13;;;;;;;4.90;3.58;;;24.40;87.10;;;;;;5074128;28;20213;-50
2022/06/16 09:17:52;;;;;;;7.28;3.45;;;24.30;88.40;;;;;;5069561;28;20240;-51
2022/06/16 09:20:36;;;;;;;5.30;3.42;;;24.40;88.30;;;;;;5071144;28;20213;-50
2022/06/16 09:23:32;;;;;;;4.13;3.30;;;24.50;85.80;;;;;;5073036;28;20204;-50
2022/06/16 09:26:13;;;;;;;5.43;3.47;;;24.00;84.80;;;;;;5071981;28;20201;-50
2022/06/16 09:28:47;;;;;;;6.47;3.05;;;24.00;86.40;;;;;;5061200;28;20228;-50
2022/06/16 09:31:21;;;;;;;4.75;2.90;;;24.00;85.60;;;;;;5071118;28;20212;-51
2022/06/16 09:33:54;;;;;;;6.28;3.30;;;24.10;85.80;;;;;;5072557;28;20648;-51
2022/06/16 09:36:26;;;;;;;5.05;3.22;;;24.30;87.00;;;;;;5074031;28;20220;-50
2022/06/16 09:38:58;;;;;;;4.03;2.78;;;24.50;88.00;;;;;;5071406;28;20205;-51
2022/06/16 09:44:27;;;;;;;5.53;3.22;;;24.50;84.80;;;;;;5068471;28;20205;-50
2022/06/16 09:46:59;;;;;;;4.63;3.10;;;24.60;85.30;;;;;;5075007;28;20588;-51
2022/06/16 09:49:35;;;;;;;3.15;2.80;;;24.60;84.60;;;;;;5070027;28;20568;-51
2022/06/16 09:52:28;;;;;;;6.55;2.80;;;24.80;87.30;;;;;;5070625;28;20246;-51
2022/06/16 09:55:01;;;;;;;3.78;2.78;;;24.30;80.20;;;;;;5069802;28;20641;-52
2022/06/16 09:57:36;;;;;;;3.83;3.10;;;24.10;79.80;;;;;;5065601;28;20255;-52
2022/06/16 10:00:10;;;;;;;4.88;3.22;;;24.10;82.50;;;;;;5065285;28;20205;-51
2022/06/16 10:02:43;;;;;;;4.50;2.90;;;24.00;83.70;;;;;;5066549;28;20934;-51
2022/06/16 10:05:15;;;;;;;6.35;2.97;;;24.00;82.00;;;;;;5067657;28;20235;-51
2022/06/16 10:07:54;;;;;;;4.78;3.30;;;24.00;83.00;;;;;;5067316;28;20307;-51
2022/06/16 10:10:28;;;;;;;4.78;3.40;;;24.00;84.70;;;;;;5066747;28;20216;-51
2022/06/16 10:13:01;;;;;;;4.90;3.63;;;24.00;84.70;;;;;;5068186;28;20254;-51
2022/06/16 10:15:37;;;;;;;5.47;3.72;;;24.00;84.70;;;;;;5069039;28;20209;-51
2022/06/16 10:18:07;;;;;;;5.95;3.22;;;24.00;86.10;;;;;;5073447;28;20261;-51
2022/06/16 10:20:35;;;;;;;4.20;3.58;;;24.10;86.90;;;;;;5070794;28;20201;-51
2022/06/16 10:23:23;;;;;;;5.18;3.28;;;24.00;84.00;;;;;;5071929;28;20273;-51
2022/06/16 10:25:57;;;;;;;4.47;2.65;;;23.90;83.60;;;;;;5071107;28;20262;-51
2022/06/16 10:28:29;;;;;;;3.45;2.60;;;24.10;84.10;;;;;;5073800;28;20254;-51
2022/06/16 10:31:00;;;;;;;3.22;2.50;;;24.10;83.30;;;;;;5070368;28;20274;-51
2022/06/16 10:33:33;;;;;;;6.65;2.33;;;24.20;82.20;;;;;;5073700;28;20657;-51
2022/06/16 10:36:17;;;;;;;4.20;2.85;;;24.20;80.10;;;;;;5069682;28;20232;-51
2022/06/16 10:38:48;;;;;;;6.85;2.40;;;24.00;80.10;;;;;;5066714;28;20208;-51
2022/06/16 10:41:29;;;;;;;4.93;2.80;;;24.00;81.60;;;;;;5073649;28;20610;-51
2022/06/16 10:44:00;;;;;;;4.63;2.53;;;24.00;78.70;;;;;;5067595;28;20213;-51
2022/06/16 10:46:32;;;;;;;7.05;2.67;;;24.10;76.10;;;;;;5072046;28;20221;-52
2022/06/16 10:49:05;;;;;;;5.72;2.65;;;24.00;77.20;;;;;;5067486;28;20224;-52
2022/06/16 10:51:37;;;;;;;5.10;3.00;;;24.10;79.90;;;;;;5071460;28;20217;-51
2022/06/16 10:54:13;;;;;;;3.83;2.72;;;24.20;81.70;;;;;;5071081;28;20742;-51
2022/06/16 10:56:46;;;;;;;3.42;2.53;;;24.20;80.00;;;;;;5067360;28;20585;-51
2022/06/16 10:59:19;;;;;;;4.90;2.90;;;24.10;79.70;;;;;;5068008;28;20201;-52
2022/06/16 11:01:55;;;;;;;5.20;2.92;;;24.00;81.00;;;;;;5068517;28;20282;-51
2022/06/16 11:04:25;;;;;;;3.88;2.30;;;24.00;78.20;;;;;;5069385;28;20273;-51
2022/06/16 11:06:56;;;;;;;3.03;2.30;;;24.00;79.50;;;;;;5069955;28;20229;-51
2022/06/16 11:09:26;;;;;;;4.80;2.63;;;24.00;77.50;;;;;;5066734;28;20267;-51
2022/06/16 11:11:58;;;;;;;4.07;2.20;;;23.90;78.30;;;;;;5068824;28;20236;-51
2022/06/16 11:14:34;;;;;;;5.25;2.63;;;23.80;79.10;;;;;;5069970;28;20616;-51
2022/06/16 11:17:08;;;;;;;4.07;2.70;;;24.00;81.30;;;;;;5074651;28;20240;-51
2022/06/16 11:19:49;;;;;;;2.67;2.47;;;24.00;82.50;;;;;;5072271;28;20208;-51
2022/06/16 11:22:27;;;;;;;3.13;2.70;;;24.00;80.70;;;;;;5069042;28;20212;-51
2022/06/16 11:25:02;;;;;;;4.40;2.65;;;24.20;81.00;;;;;;5070629;28;20262;-51
2022/06/16 11:27:40;;;;;;;4.78;2.72;;;24.20;82.70;;;;;;5068785;28;20369;-51
2022/06/16 11:30:36;;;;;;;6.68;3.00;;;24.10;81.10;;;;;;5073654;28;20247;-51
2022/06/16 11:34:06;;;;;;;4.70;2.50;;;24.00;80.80;;;;;;5068179;28;20704;-51
2022/06/16 11:36:14;;;;;;;5.60;2.50;;;23.90;81.30;;;;;;5072233;28;20205;-50
2022/06/16 11:38:50;;;;;;;3.40;2.33;;;23.90;81.40;;;;;;5070574;28;20201;-51
2022/06/16 11:41:19;;;;;;;4.35;2.60;;;24.10;82.20;;;;;;5070884;28;20205;-52
2022/06/16 11:44:00;;;;;;;4.88;2.40;;;24.00;81.40;;;;;;5073112;28;20243;-51
2022/06/16 11:46:38;;;;;;;3.10;2.40;;;24.10;81.40;;;;;;5070669;28;20233;-51
2022/06/16 11:49:18;;;;;;;2.97;2.40;;;24.00;79.80;;;;;;5071344;28;20211;-50
2022/06/16 11:51:54;;;;;;;3.35;2.58;;;24.00;80.50;;;;;;5069717;28;20263;-50
2022/06/16 11:54:36;;;;;;;3.42;2.60;;;24.00;80.60;;;;;;5070772;28;20208;-50
2022/06/16 11:57:14;;;;;;;2.95;2.13;;;24.00;81.40;;;;;;5069470;28;20288;-50
2022/06/16 12:00:02;;;;;;;3.53;2.30;;;24.00;80.80;;;;;;5070463;28;20350;-51
2022/06/16 12:03:04;;;;;;;3.15;2.20;;;24.20;81.90;;;;;;5071785;28;20200;-51
2022/06/16 12:05:39;;;;;;;2.65;2.30;;;24.30;81.90;;;;;;5062199;28;20270;-50
2022/06/16 12:08:33;;;;;;;5.72;2.30;;;24.20;77.20;;;;;;5071303;28;20285;-51
2022/06/16 12:11:06;;;;;;;2.25;2.05;;;24.20;80.40;;;;;;5064789;28;20612;-51
2022/06/16 12:13:41;;;;;;;4.70;2.65;;;24.20;79.70;;;;;;5066258;28;20197;-51
2022/06/16 12:16:16;;;;;;;3.63;2.70;;;24.30;82.30;;;;;;5068739;28;20262;-50
2022/06/16 12:18:57;;;;;;;4.22;2.35;;;24.30;82.90;;;;;;5068700;28;20308;-51
2022/06/16 12:21:32;;;;;;;4.68;2.30;;;24.40;83.50;;;;;;5071469;28;20253;-51
2022/06/16 12:24:06;;;;;;;4.95;2.47;;;24.30;79.40;;;;;;5071003;28;20213;-49
2022/06/16 12:26:42;;;;;;;4.22;2.30;;;24.40;80.50;;;;;;5072545;28;20229;-50
2022/06/16 12:29:25;;;;;;;3.33;2.15;;;24.20;77.10;;;;;;5072369;28;20247;-50
2022/06/16 12:32:01;;;;;;;2.20;2.00;;;24.30;80.20;;;;;;5077314;28;20232;-51
2022/06/16 12:34:35;;;;;;;2.75;1.98;;;24.30;76.60;;;;;;5071099;28;21008;-50
2022/06/16 12:37:09;;;;;;;2.90;2.13;;;24.40;80.10;;;;;;5068597;28;20225;-51
2022/06/16 12:39:46;;;;;;;6.65;2.33;;;24.30;79.70;;;;;;5071285;28;20209;-51
2022/06/16 12:42:18;;;;;;;3.42;2.05;;;24.30;81.10;;;;;;5069192;28;20204;-51
2022/06/16 12:44:53;;;;;;;4.45;2.30;;;24.20;80.50;;;;;;5070996;28;20233;-50
2022/06/16 12:47:26;;;;;;;3.28;2.00;;;24.20;80.80;;;;;;5071031;28;20221;-51
2022/06/16 12:50:00;;;;;;;3.03;1.80;;;24.20;79.40;;;;;;5071289;28;20212;-51
2022/06/16 12:52:38;;;;;;;6.38;1.85;;;24.30;78.50;;;;;;5071637;28;20254;-50
2022/06/16 12:55:10;;;;;;;5.80;2.30;;;24.40;78.20;;;;;;5070072;28;20258;-51
2022/06/16 12:57:44;;;;;;;5.93;2.00;;;24.30;80.10;;;;;;5064997;28;20229;-50
2022/06/16 13:00:17;;;;;;;6.50;2.10;;;24.40;77.80;;;;;;5066776;28;20209;-51
2022/06/16 13:03:03;;;;;;;2.95;1.88;;;24.40;77.00;;;;;;5067990;28;20930;-50
2022/06/16 13:05:32;;;;;;;2.80;2.00;;;24.40;78.60;;;;;;5064566;28;20255;-49
2022/06/16 13:08:03;;;;;;;3.10;1.90;;;24.40;80.50;;;;;;5066586;28;20945;-51
2022/06/16 13:10:38;;;;;;;2.67;1.70;;;24.30;78.60;;;;;;5061926;28;20735;-51
2022/06/16 13:13:08;;;;;;;2.50;1.95;;;24.20;77.30;;;;;;5070402;28;20251;-50
2022/06/16 13:15:39;;;;;;;4.18;1.92;;;24.20;78.60;;;;;;5071329;28;20205;-50
2022/06/16 13:18:19;;;;;;;2.60;1.75;;;24.20;77.90;;;;;;5074699;28;20323;-50
2022/06/16 13:20:59;;;;;;;3.15;1.77;;;24.20;78.40;;;;;;5075071;28;20208;-50
2022/06/16 13:23:35;;;;;;;2.60;1.65;;;24.20;74.20;;;;;;5070190;28;20239;-50
2022/06/16 13:26:21;;;;;;;2.97;1.48;;;24.20;75.00;;;;;;5070494;28;20216;-50
2022/06/16 13:29:08;;;;;;;2.30;1.70;;;24.30;78.90;;;;;;5063158;28;20258;-50
2022/06/16 13:32:02;;;;;;;2.70;1.73;;;24.30;77.60;;;;;;5068362;28;20221;-51
2022/06/16 13:34:51;;;;;;;3.40;1.77;;;24.30;78.90;;;;;;5066846;28;20262;-50